sensor_id;sensor_type;location;lat;lon;timestamp;pressure;altitude;pressure_sealevel;temperature;humidity
61682;BME280;47577;43.610;25.010;2022-07-23T00:02:19;100335.84;;;25.21;33.94
61682;BME280;47577;43.610;25.010;2022-07-23T00:04:44;100340.91;;;25.06;34.42
61682;BME280;47577;43.610;25.010;2022-07-23T00:07:10;100332.97;;;25.23;34.57
61682;BME280;47577;43.610;25.010;2022-07-23T00:09:35;100338.41;;;25.23;34.69
61682;BME280;47577;43.610;25.010;2022-07-23T00:12:01;100342.09;;;25.41;34.77
61682;BME280;47577;43.610;25.010;2022-07-23T00:14:26;100344.94;;;25.40;34.59
61682;BME280;47577;43.610;25.010;2022-07-23T00:16:54;100340.56;;;25.29;34.87
61682;BME280;47577;43.610;25.010;2022-07-23T00:19:20;100343.41;;;25.37;35.09
61682;BME280;47577;43.610;25.010;2022-07-23T00:21:45;100341.94;;;25.43;35.85
61682;BME280;47577;43.610;25.010;2022-07-23T00:24:11;100338.47;;;25.50;35.59
61682;BME280;47577;43.610;25.010;2022-07-23T00:26:36;100346.22;;;25.45;35.42
61682;BME280;47577;43.610;25.010;2022-07-23T00:29:02;100342.28;;;25.58;35.59
61682;BME280;47577;43.610;25.010;2022-07-23T00:31:27;100344.56;;;25.62;35.46
61682;BME280;47577;43.610;25.010;2022-07-23T00:33:53;100338.75;;;25.75;35.72
61682;BME280;47577;43.610;25.010;2022-07-23T00:36:22;100341.53;;;25.65;35.84
61682;BME280;47577;43.610;25.010;2022-07-23T00:38:48;100333.63;;;25.72;35.64
61682;BME280;47577;43.610;25.010;2022-07-23T00:41:14;100336.03;;;25.75;36.21
61682;BME280;47577;43.610;25.010;2022-07-23T00:43:40;100338.84;;;25.83;35.73
61682;BME280;47577;43.610;25.010;2022-07-23T00:46:06;100343.56;;;25.91;36.30
61682;BME280;47577;43.610;25.010;2022-07-23T00:48:31;100350.16;;;25.98;35.59
61682;BME280;47577;43.610;25.010;2022-07-23T00:50:57;100359.09;;;26.08;35.78
61682;BME280;47577;43.610;25.010;2022-07-23T00:53:22;100360.66;;;25.83;36.89
61682;BME280;47577;43.610;25.010;2022-07-23T00:55:48;100365.56;;;25.42;37.54
61682;BME280;47577;43.610;25.010;2022-07-23T00:58:14;100369.41;;;24.82;40.29
61682;BME280;47577;43.610;25.010;2022-07-23T01:00:41;100372.84;;;24.75;42.49
61682;BME280;47577;43.610;25.010;2022-07-23T01:03:06;100379.41;;;24.53;43.17
61682;BME280;47577;43.610;25.010;2022-07-23T01:05:32;100375.69;;;24.54;45.38
61682;BME280;47577;43.610;25.010;2022-07-23T01:07:57;100371.25;;;24.14;45.28
61682;BME280;47577;43.610;25.010;2022-07-23T01:10:23;100381.25;;;24.33;44.82
61682;BME280;47577;43.610;25.010;2022-07-23T01:15:23;100388.81;;;23.79;47.22
61682;BME280;47577;43.610;25.010;2022-07-23T01:17:49;100386.63;;;23.63;47.59
61682;BME280;47577;43.610;25.010;2022-07-23T01:20:14;100391.50;;;23.38;48.49
61682;BME280;47577;43.610;25.010;2022-07-23T01:22:40;100391.78;;;23.35;49.05
61682;BME280;47577;43.610;25.010;2022-07-23T01:25:05;100388.13;;;23.46;48.21
61682;BME280;47577;43.610;25.010;2022-07-23T01:27:31;100388.75;;;23.59;48.62
61682;BME280;47577;43.610;25.010;2022-07-23T01:29:57;100382.63;;;23.57;48.53
61682;BME280;47577;43.610;25.010;2022-07-23T01:32:22;100385.31;;;23.57;47.46
61682;BME280;47577;43.610;25.010;2022-07-23T01:34:47;100383.88;;;23.53;47.96
61682;BME280;47577;43.610;25.010;2022-07-23T01:37:13;100373.69;;;23.45;48.04
61682;BME280;47577;43.610;25.010;2022-07-23T01:39:38;100380.53;;;23.40;48.22
61682;BME280;47577;43.610;25.010;2022-07-23T01:42:04;100380.09;;;23.34;48.00
61682;BME280;47577;43.610;25.010;2022-07-23T01:44:30;100366.75;;;23.22;48.12
61682;BME280;47577;43.610;25.010;2022-07-23T01:46:55;100376.28;;;22.83;49.59
61682;BME280;47577;43.610;25.010;2022-07-23T01:49:21;100364.50;;;22.52;49.73
61682;BME280;47577;43.610;25.010;2022-07-23T01:51:46;100367.47;;;22.49;50.07
61682;BME280;47577;43.610;25.010;2022-07-23T01:54:27;100380.47;;;22.34;50.71
61682;BME280;47577;43.610;25.010;2022-07-23T01:56:53;100371.72;;;22.42;49.89
61682;BME280;47577;43.610;25.010;2022-07-23T01:59:19;100368.00;;;22.43;50.35
61682;BME280;47577;43.610;25.010;2022-07-23T02:01:44;100375.19;;;22.33;50.72
61682;BME280;47577;43.610;25.010;2022-07-23T02:04:10;100369.97;;;21.86;51.26
61682;BME280;47577;43.610;25.010;2022-07-23T02:06:35;100376.97;;;22.00;51.66
61682;BME280;47577;43.610;25.010;2022-07-23T02:09:04;100371.91;;;22.06;51.45
61682;BME280;47577;43.610;25.010;2022-07-23T02:11:29;100372.16;;;22.03;51.16
61682;BME280;47577;43.610;25.010;2022-07-23T02:19:00;100375.00;;;21.90;51.22
61682;BME280;47577;43.610;25.010;2022-07-23T02:21:25;100372.06;;;21.82;51.03
61682;BME280;47577;43.610;25.010;2022-07-23T02:23:51;100369.13;;;21.85;51.20
61682;BME280;47577;43.610;25.010;2022-07-23T02:26:17;100379.19;;;21.83;51.00
61682;BME280;47577;43.610;25.010;2022-07-23T02:33:49;100373.72;;;22.06;50.63
61682;BME280;47577;43.610;25.010;2022-07-23T02:36:15;100375.47;;;22.07;50.28
61682;BME280;47577;43.610;25.010;2022-07-23T03:35:22;100405.66;;;22.99;47.57
61682;BME280;47577;43.610;25.010;2022-07-23T03:37:47;100404.63;;;23.12;47.96
61682;BME280;47577;43.610;25.010;2022-07-23T03:42:48;100405.75;;;23.30;47.46
61682;BME280;47577;43.610;25.010;2022-07-23T03:45:14;100408.69;;;23.48;46.75
61682;BME280;47577;43.610;25.010;2022-07-23T03:47:39;100409.31;;;23.52;46.81
61682;BME280;47577;43.610;25.010;2022-07-23T03:50:05;100409.66;;;23.68;45.89
61682;BME280;47577;43.610;25.010;2022-07-23T03:52:30;100408.88;;;23.87;45.46
61682;BME280;47577;43.610;25.010;2022-07-23T03:54:56;100405.63;;;24.03;44.78
61682;BME280;47577;43.610;25.010;2022-07-23T03:57:22;100410.69;;;24.18;44.73
61682;BME280;47577;43.610;25.010;2022-07-23T03:59:47;100412.28;;;24.30;45.00
61682;BME280;47577;43.610;25.010;2022-07-23T04:02:13;100414.88;;;24.41;44.41
61682;BME280;47577;43.610;25.010;2022-07-23T04:04:38;100418.06;;;24.56;44.21
61682;BME280;47577;43.610;25.010;2022-07-23T04:07:04;100413.63;;;24.65;44.75
61682;BME280;47577;43.610;25.010;2022-07-23T04:09:29;100421.34;;;24.79;46.75
61682;BME280;47577;43.610;25.010;2022-07-23T04:11:56;100425.50;;;24.74;46.12
61682;BME280;47577;43.610;25.010;2022-07-23T04:14:21;100430.25;;;24.81;45.35
61682;BME280;47577;43.610;25.010;2022-07-23T04:16:47;100431.09;;;24.82;45.72
61682;BME280;47577;43.610;25.010;2022-07-23T04:19:12;100436.53;;;24.92;46.42
61682;BME280;47577;43.610;25.010;2022-07-23T04:21:38;100425.09;;;24.88;46.06
61682;BME280;47577;43.610;25.010;2022-07-23T04:24:04;100426.50;;;24.92;46.34
61682;BME280;47577;43.610;25.010;2022-07-23T04:26:30;100430.25;;;24.81;47.23
61682;BME280;47577;43.610;25.010;2022-07-23T04:28:55;100433.09;;;24.80;47.71
61682;BME280;47577;43.610;25.010;2022-07-23T04:31:21;100437.81;;;24.88;48.18
61682;BME280;47577;43.610;25.010;2022-07-23T04:33:46;100427.34;;;24.93;48.03
61682;BME280;47577;43.610;25.010;2022-07-23T04:36:12;100440.78;;;24.94;48.28
61682;BME280;47577;43.610;25.010;2022-07-23T04:38:40;100436.66;;;25.00;49.26
61682;BME280;47577;43.610;25.010;2022-07-23T04:41:07;100437.94;;;24.96;49.23
61682;BME280;47577;43.610;25.010;2022-07-23T04:43:33;100445.66;;;25.00;49.09
61682;BME280;47577;43.610;25.010;2022-07-23T04:45:59;100440.22;;;25.00;49.51
61682;BME280;47577;43.610;25.010;2022-07-23T04:48:24;100445.66;;;25.00;49.83
61682;BME280;47577;43.610;25.010;2022-07-23T04:50:50;100440.22;;;25.10;49.26
61682;BME280;47577;43.610;25.010;2022-07-23T04:53:16;100449.81;;;25.14;49.65
61682;BME280;47577;43.610;25.010;2022-07-23T04:55:43;100447.38;;;25.21;50.54
61682;BME280;47577;43.610;25.010;2022-07-23T04:58:09;100446.81;;;25.27;50.01
61682;BME280;47577;43.610;25.010;2022-07-23T05:00:34;100451.97;;;25.30;49.81
61682;BME280;47577;43.610;25.010;2022-07-23T05:03:00;100453.94;;;25.38;49.66
61682;BME280;47577;43.610;25.010;2022-07-23T05:05:26;100459.97;;;25.42;49.86
61682;BME280;47577;43.610;25.010;2022-07-23T05:07:51;100458.50;;;25.47;49.97
61682;BME280;47577;43.610;25.010;2022-07-23T05:10:17;100461.50;;;25.54;49.51
61682;BME280;47577;43.610;25.010;2022-07-23T05:12:42;100459.31;;;25.58;49.09
61682;BME280;47577;43.610;25.010;2022-07-23T05:15:08;100462.94;;;25.58;49.14
61682;BME280;47577;43.610;25.010;2022-07-23T05:17:33;100475.06;;;25.64;49.13
61682;BME280;47577;43.610;25.010;2022-07-23T05:19:59;100472.94;;;25.67;48.72
61682;BME280;47577;43.610;25.010;2022-07-23T05:22:24;100470.59;;;25.82;47.76
61682;BME280;47577;43.610;25.010;2022-07-23T05:24:50;100467.69;;;25.94;46.69
61682;BME280;47577;43.610;25.010;2022-07-23T05:27:15;100469.50;;;26.03;46.72
61682;BME280;47577;43.610;25.010;2022-07-23T05:29:41;100464.34;;;26.09;46.92
61682;BME280;47577;43.610;25.010;2022-07-23T05:32:06;100461.63;;;26.09;46.09
61682;BME280;47577;43.610;25.010;2022-07-23T05:34:32;100454.25;;;26.20;46.51
61682;BME280;47577;43.610;25.010;2022-07-23T05:36:57;100460.56;;;26.38;45.78
61682;BME280;47577;43.610;25.010;2022-07-23T05:39:23;100451.25;;;26.41;45.44
61682;BME280;47577;43.610;25.010;2022-07-23T05:41:48;100463.22;;;26.48;45.14
61682;BME280;47577;43.610;25.010;2022-07-23T05:44:13;100460.69;;;26.64;44.51
61682;BME280;47577;43.610;25.010;2022-07-23T05:46:39;100464.22;;;26.75;44.16
61682;BME280;47577;43.610;25.010;2022-07-23T05:49:04;100461.59;;;26.83;44.08
61682;BME280;47577;43.610;25.010;2022-07-23T05:51:30;100464.06;;;26.94;43.26
61682;BME280;47577;43.610;25.010;2022-07-23T05:53:55;100460.25;;;27.05;44.52
61682;BME280;47577;43.610;25.010;2022-07-23T05:56:21;100469.19;;;27.15;43.39
61682;BME280;47577;43.610;25.010;2022-07-23T05:58:46;100465.69;;;27.23;43.30
61682;BME280;47577;43.610;25.010;2022-07-23T06:01:12;100462.88;;;27.33;43.55
61682;BME280;47577;43.610;25.010;2022-07-23T06:03:38;100461.84;;;27.34;43.69
61682;BME280;47577;43.610;25.010;2022-07-23T06:06:04;100464.47;;;27.44;43.22
61682;BME280;47577;43.610;25.010;2022-07-23T06:08:29;100465.72;;;27.49;43.09
61682;BME280;47577;43.610;25.010;2022-07-23T06:10:55;100460.47;;;27.56;42.71
61682;BME280;47577;43.610;25.010;2022-07-23T06:13:21;100465.28;;;27.62;43.67
61682;BME280;47577;43.610;25.010;2022-07-23T06:15:46;100467.75;;;27.73;42.99
61682;BME280;47577;43.610;25.010;2022-07-23T06:18:12;100474.06;;;27.74;43.87
61682;BME280;47577;43.610;25.010;2022-07-23T06:20:37;100471.22;;;27.84;43.37
61682;BME280;47577;43.610;25.010;2022-07-23T06:23:04;100466.44;;;27.86;42.58
61682;BME280;47577;43.610;25.010;2022-07-23T06:25:29;100471.69;;;28.05;42.59
61682;BME280;47577;43.610;25.010;2022-07-23T06:27:55;100478.22;;;28.13;41.77
61682;BME280;47577;43.610;25.010;2022-07-23T06:30:20;100472.63;;;28.22;41.53
61682;BME280;47577;43.610;25.010;2022-07-23T06:32:46;100464.97;;;28.34;42.12
61682;BME280;47577;43.610;25.010;2022-07-23T06:35:12;100463.47;;;28.48;41.53
61682;BME280;47577;43.610;25.010;2022-07-23T06:37:37;100463.50;;;28.56;40.82
61682;BME280;47577;43.610;25.010;2022-07-23T06:40:03;100467.47;;;28.70;40.93
61682;BME280;47577;43.610;25.010;2022-07-23T06:42:28;100466.97;;;28.83;40.65
61682;BME280;47577;43.610;25.010;2022-07-23T06:44:54;100466.63;;;28.86;40.94
61682;BME280;47577;43.610;25.010;2022-07-23T06:47:19;100470.06;;;28.96;40.14
61682;BME280;47577;43.610;25.010;2022-07-23T06:49:44;100465.97;;;29.09;40.54
61682;BME280;47577;43.610;25.010;2022-07-23T06:52:10;100463.59;;;29.22;40.14
61682;BME280;47577;43.610;25.010;2022-07-23T06:54:35;100464.78;;;29.36;40.38
61682;BME280;47577;43.610;25.010;2022-07-23T06:57:01;100476.03;;;29.49;40.39
61682;BME280;47577;43.610;25.010;2022-07-23T06:59:27;100463.53;;;29.63;39.11
61682;BME280;47577;43.610;25.010;2022-07-23T07:01:55;100471.88;;;29.86;39.69
61682;BME280;47577;43.610;25.010;2022-07-23T07:04:22;100461.22;;;30.00;39.86
61682;BME280;47577;43.610;25.010;2022-07-23T07:06:48;100463.06;;;30.07;39.29
61682;BME280;47577;43.610;25.010;2022-07-23T07:09:13;100461.47;;;30.21;38.37
61682;BME280;47577;43.610;25.010;2022-07-23T07:11:39;100470.81;;;30.35;38.80
61682;BME280;47577;43.610;25.010;2022-07-23T07:14:04;100470.63;;;30.45;38.34
61682;BME280;47577;43.610;25.010;2022-07-23T07:16:30;100462.53;;;30.52;38.81
61682;BME280;47577;43.610;25.010;2022-07-23T07:18:55;100466.75;;;30.62;38.15
61682;BME280;47577;43.610;25.010;2022-07-23T07:21:20;100469.25;;;30.72;38.01
61682;BME280;47577;43.610;25.010;2022-07-23T07:23:46;100466.81;;;30.77;38.20
61682;BME280;47577;43.610;25.010;2022-07-23T07:26:11;100462.06;;;30.94;36.46
61682;BME280;47577;43.610;25.010;2022-07-23T07:28:37;100469.19;;;31.12;36.51
61682;BME280;47577;43.610;25.010;2022-07-23T07:31:02;100465.63;;;31.26;37.01
61682;BME280;47577;43.610;25.010;2022-07-23T07:33:28;100466.97;;;31.45;37.15
61682;BME280;47577;43.610;25.010;2022-07-23T07:35:54;100459.81;;;31.59;37.21
61682;BME280;47577;43.610;25.010;2022-07-23T07:38:19;100463.22;;;31.76;36.78
61682;BME280;47577;43.610;25.010;2022-07-23T07:40:44;100461.44;;;31.83;35.71
61682;BME280;47577;43.610;25.010;2022-07-23T07:43:10;100461.81;;;31.95;35.11
61682;BME280;47577;43.610;25.010;2022-07-23T07:45:35;100464.91;;;32.07;34.83
61682;BME280;47577;43.610;25.010;2022-07-23T07:48:01;100463.22;;;32.06;35.48
61682;BME280;47577;43.610;25.010;2022-07-23T07:50:27;100462.50;;;32.12;34.99
61682;BME280;47577;43.610;25.010;2022-07-23T07:52:53;100458.47;;;32.30;34.64
61682;BME280;47577;43.610;25.010;2022-07-23T07:55:18;100460.72;;;32.41;35.67
61682;BME280;47577;43.610;25.010;2022-07-23T07:57:44;100454.63;;;32.46;35.72
61682;BME280;47577;43.610;25.010;2022-07-23T08:00:09;100456.28;;;32.61;34.94
61682;BME280;47577;43.610;25.010;2022-07-23T08:05:07;100459.56;;;32.87;33.94
61682;BME280;47577;43.610;25.010;2022-07-23T08:07:32;100453.91;;;33.16;33.29
61682;BME280;47577;43.610;25.010;2022-07-23T08:09:57;100462.09;;;33.31;33.30
61682;BME280;47577;43.610;25.010;2022-07-23T08:12:24;100454.75;;;33.39;32.79
61682;BME280;47577;43.610;25.010;2022-07-23T08:14:49;100445.91;;;33.50;32.20
61682;BME280;47577;43.610;25.010;2022-07-23T08:17:15;100444.66;;;33.52;32.13
61682;BME280;47577;43.610;25.010;2022-07-23T08:19:40;100448.56;;;33.65;31.55
61682;BME280;47577;43.610;25.010;2022-07-23T08:22:06;100449.66;;;33.70;30.77
61682;BME280;47577;43.610;25.010;2022-07-23T08:24:31;100449.34;;;33.87;30.84
61682;BME280;47577;43.610;25.010;2022-07-23T08:26:56;100448.25;;;33.81;29.95
61682;BME280;47577;43.610;25.010;2022-07-23T08:29:22;100454.25;;;33.98;29.15
61682;BME280;47577;43.610;25.010;2022-07-23T08:31:47;100459.78;;;33.98;28.79
61682;BME280;47577;43.610;25.010;2022-07-23T08:34:14;100455.34;;;33.69;28.56
61682;BME280;47577;43.610;25.010;2022-07-23T08:36:39;100443.22;;;33.98;28.66
61682;BME280;47577;43.610;25.010;2022-07-23T08:39:04;100448.81;;;34.05;27.76
61682;BME280;47577;43.610;25.010;2022-07-23T08:41:30;100446.59;;;34.29;28.27
61682;BME280;47577;43.610;25.010;2022-07-23T08:43:55;100453.38;;;34.26;27.14
61682;BME280;47577;43.610;25.010;2022-07-23T08:46:21;100452.59;;;34.46;26.35
61682;BME280;47577;43.610;25.010;2022-07-23T08:48:48;100452.63;;;34.59;27.02
61682;BME280;47577;43.610;25.010;2022-07-23T08:51:14;100451.63;;;34.73;26.69
61682;BME280;47577;43.610;25.010;2022-07-23T08:53:39;100449.09;;;34.98;26.89
61682;BME280;47577;43.610;25.010;2022-07-23T08:56:06;100447.81;;;35.21;26.10
61682;BME280;47577;43.610;25.010;2022-07-23T08:58:31;100451.66;;;35.20;26.06
61682;BME280;47577;43.610;25.010;2022-07-23T09:00:57;100450.19;;;35.51;26.65
61682;BME280;47577;43.610;25.010;2022-07-23T09:03:30;100452.72;;;35.59;27.10
61682;BME280;47577;43.610;25.010;2022-07-23T09:05:57;100445.88;;;35.68;26.56
61682;BME280;47577;43.610;25.010;2022-07-23T09:08:23;100447.34;;;35.84;26.56
61682;BME280;47577;43.610;25.010;2022-07-23T09:13:31;100449.91;;;35.86;26.53
61682;BME280;47577;43.610;25.010;2022-07-23T09:16:00;100453.03;;;36.03;26.17
61682;BME280;47577;43.610;25.010;2022-07-23T09:18:30;100451.50;;;36.14;25.10
61682;BME280;47577;43.610;25.010;2022-07-23T09:21:05;100454.00;;;36.22;24.39
61682;BME280;47577;43.610;25.010;2022-07-23T09:23:47;100447.38;;;36.36;25.41
61682;BME280;47577;43.610;25.010;2022-07-23T09:26:20;100448.56;;;36.54;25.73
61682;BME280;47577;43.610;25.010;2022-07-23T09:29:08;100451.69;;;36.64;25.38
61682;BME280;47577;43.610;25.010;2022-07-23T09:31:33;100451.00;;;36.69;26.40
61682;BME280;47577;43.610;25.010;2022-07-23T09:34:06;100446.78;;;36.66;25.32
61682;BME280;47577;43.610;25.010;2022-07-23T09:36:32;100443.91;;;36.86;25.76
61682;BME280;47577;43.610;25.010;2022-07-23T09:38:58;100444.28;;;36.90;24.83
61682;BME280;47577;43.610;25.010;2022-07-23T09:41:23;100435.84;;;37.10;24.82
61682;BME280;47577;43.610;25.010;2022-07-23T09:43:54;100440.38;;;37.29;24.56
61682;BME280;47577;43.610;25.010;2022-07-23T09:46:27;100433.88;;;37.42;24.23
61682;BME280;47577;43.610;25.010;2022-07-23T09:48:55;100438.97;;;37.64;24.35
61682;BME280;47577;43.610;25.010;2022-07-23T09:51:22;100436.63;;;37.86;22.57
61682;BME280;47577;43.610;25.010;2022-07-23T09:53:54;100431.38;;;37.96;22.82
61682;BME280;47577;43.610;25.010;2022-07-23T09:56:21;100440.44;;;38.03;22.94
61682;BME280;47577;43.610;25.010;2022-07-23T09:58:49;100434.19;;;38.08;23.14
61682;BME280;47577;43.610;25.010;2022-07-23T10:01:15;100432.53;;;38.07;22.54
61682;BME280;47577;43.610;25.010;2022-07-23T10:03:41;100425.59;;;38.16;22.58
61682;BME280;47577;43.610;25.010;2022-07-23T10:06:10;100421.50;;;38.19;21.58
61682;BME280;47577;43.610;25.010;2022-07-23T10:08:39;100406.69;;;38.25;22.33
61682;BME280;47577;43.610;25.010;2022-07-23T10:11:05;100406.59;;;38.32;22.17
61682;BME280;47577;43.610;25.010;2022-07-23T10:13:31;100415.97;;;38.49;21.48
61682;BME280;47577;43.610;25.010;2022-07-23T10:16:15;100406.28;;;38.52;21.09
61682;BME280;47577;43.610;25.010;2022-07-23T10:18:41;100401.28;;;38.30;21.73
61682;BME280;47577;43.610;25.010;2022-07-23T10:21:07;100405.56;;;38.45;21.58
61682;BME280;47577;43.610;25.010;2022-07-23T10:23:35;100404.22;;;38.47;20.72
61682;BME280;47577;43.610;25.010;2022-07-23T10:26:05;100396.78;;;38.59;20.86
61682;BME280;47577;43.610;25.010;2022-07-23T10:28:45;100393.81;;;38.61;20.55
61682;BME280;47577;43.610;25.010;2022-07-23T10:36:23;100388.31;;;38.85;20.21
61682;BME280;47577;43.610;25.010;2022-07-23T10:39:10;100387.25;;;38.98;18.92
61682;BME280;47577;43.610;25.010;2022-07-23T10:41:40;100384.72;;;39.20;17.99
61682;BME280;47577;43.610;25.010;2022-07-23T10:44:15;100384.25;;;39.23;18.18
61682;BME280;47577;43.610;25.010;2022-07-23T10:47:00;100374.56;;;39.37;18.26
61682;BME280;47577;43.610;25.010;2022-07-23T10:49:32;100372.00;;;39.47;18.75
61682;BME280;47577;43.610;25.010;2022-07-23T10:57:25;100361.25;;;39.39;18.87
61682;BME280;47577;43.610;25.010;2022-07-23T11:02:26;100347.13;;;39.41;18.36
61682;BME280;47577;43.610;25.010;2022-07-23T11:04:53;100346.50;;;39.50;18.84
61682;BME280;47577;43.610;25.010;2022-07-23T11:07:18;100341.53;;;39.64;17.86
61682;BME280;47577;43.610;25.010;2022-07-23T11:09:44;100340.44;;;39.65;18.53
61682;BME280;47577;43.610;25.010;2022-07-23T11:17:24;100333.81;;;39.95;18.01
61682;BME280;47577;43.610;25.010;2022-07-23T11:25:29;100317.28;;;40.17;17.85
61682;BME280;47577;43.610;25.010;2022-07-23T11:30:59;100312.53;;;40.47;18.04
61682;BME280;47577;43.610;25.010;2022-07-23T11:33:24;100306.97;;;40.64;17.34
61682;BME280;47577;43.610;25.010;2022-07-23T11:36:02;100309.41;;;40.77;18.23
61682;BME280;47577;43.610;25.010;2022-07-23T11:38:30;100306.88;;;40.92;17.37
61682;BME280;47577;43.610;25.010;2022-07-23T11:40:56;100303.34;;;40.97;17.48
61682;BME280;47577;43.610;25.010;2022-07-23T11:43:23;100305.13;;;40.86;18.14
61682;BME280;47577;43.610;25.010;2022-07-23T11:45:50;100297.69;;;40.58;18.47
61682;BME280;47577;43.610;25.010;2022-07-23T11:48:17;100304.59;;;40.89;16.98
61682;BME280;47577;43.610;25.010;2022-07-23T11:50:43;100300.63;;;41.02;16.54
61682;BME280;47577;43.610;25.010;2022-07-23T11:53:09;100305.25;;;40.97;16.93
61682;BME280;47577;43.610;25.010;2022-07-23T11:55:34;100293.16;;;41.08;16.46
61682;BME280;47577;43.610;25.010;2022-07-23T11:58:00;100294.72;;;40.99;17.03
61682;BME280;47577;43.610;25.010;2022-07-23T12:00:27;100292.47;;;41.18;17.85
61682;BME280;47577;43.610;25.010;2022-07-23T12:02:55;100290.78;;;41.17;17.45
61682;BME280;47577;43.610;25.010;2022-07-23T12:05:22;100289.75;;;41.23;17.09
61682;BME280;47577;43.610;25.010;2022-07-23T12:07:48;100289.22;;;41.26;17.48
61682;BME280;47577;43.610;25.010;2022-07-23T12:10:37;100292.19;;;41.36;16.64
61682;BME280;47577;43.610;25.010;2022-07-23T12:13:05;100290.66;;;41.45;16.92
61682;BME280;47577;43.610;25.010;2022-07-23T12:15:35;100285.84;;;41.41;17.21
61682;BME280;47577;43.610;25.010;2022-07-23T12:18:03;100280.75;;;41.60;16.81
61682;BME280;47577;43.610;25.010;2022-07-23T12:20:30;100280.75;;;41.60;16.27
61682;BME280;47577;43.610;25.010;2022-07-23T12:22:57;100274.03;;;41.56;16.60
61682;BME280;47577;43.610;25.010;2022-07-23T12:25:25;100268.75;;;41.37;16.13
61682;BME280;47577;43.610;25.010;2022-07-23T12:28:05;100275.00;;;41.44;16.29
61682;BME280;47577;43.610;25.010;2022-07-23T12:30:49;100269.16;;;41.46;16.36
61682;BME280;47577;43.610;25.010;2022-07-23T12:33:20;100259.03;;;41.62;16.56
61682;BME280;47577;43.610;25.010;2022-07-23T12:35:46;100253.97;;;41.59;16.90
61682;BME280;47577;43.610;25.010;2022-07-23T12:38:13;100255.03;;;41.75;16.18
61682;BME280;47577;43.610;25.010;2022-07-23T12:40:55;100257.28;;;41.78;16.75
61682;BME280;47577;43.610;25.010;2022-07-23T12:43:22;100251.59;;;41.95;16.36
61682;BME280;47577;43.610;25.010;2022-07-23T12:45:49;100244.31;;;41.94;16.16
61682;BME280;47577;43.610;25.010;2022-07-23T12:48:25;100252.81;;;42.04;16.01
61682;BME280;47577;43.610;25.010;2022-07-23T12:50:52;100244.66;;;41.70;15.99
61682;BME280;47577;43.610;25.010;2022-07-23T12:53:29;100249.16;;;42.03;15.82
61682;BME280;47577;43.610;25.010;2022-07-23T12:56:04;100236.63;;;42.06;16.25
61682;BME280;47577;43.610;25.010;2022-07-23T13:01:05;100231.66;;;41.59;16.60
61682;BME280;47577;43.610;25.010;2022-07-23T13:03:32;100229.91;;;41.53;16.38
61682;BME280;47577;43.610;25.010;2022-07-23T13:05:58;100225.94;;;41.71;16.00
61682;BME280;47577;43.610;25.010;2022-07-23T13:08:24;100233.63;;;41.86;15.34
61682;BME280;47577;43.610;25.010;2022-07-23T13:10:50;100229.38;;;41.78;15.70
61682;BME280;47577;43.610;25.010;2022-07-23T13:13:17;100234.53;;;41.69;15.45
61682;BME280;47577;43.610;25.010;2022-07-23T13:15:43;100229.31;;;41.73;14.98
61682;BME280;47577;43.610;25.010;2022-07-23T13:18:09;100224.16;;;41.87;15.68
61682;BME280;47577;43.610;25.010;2022-07-23T13:20:34;100227.03;;;41.97;15.17
61682;BME280;47577;43.610;25.010;2022-07-23T13:23:01;100215.56;;;41.93;15.58
61682;BME280;47577;43.610;25.010;2022-07-23T13:25:26;100219.78;;;41.96;15.66
61682;BME280;47577;43.610;25.010;2022-07-23T13:27:52;100216.88;;;42.13;15.50
61682;BME280;47577;43.610;25.010;2022-07-23T13:30:17;100215.03;;;42.24;14.69
61682;BME280;47577;43.610;25.010;2022-07-23T13:32:43;100204.63;;;42.14;15.14
61682;BME280;47577;43.610;25.010;2022-07-23T13:35:08;100213.28;;;42.17;14.95
61682;BME280;47577;43.610;25.010;2022-07-23T13:37:34;100210.31;;;42.29;14.66
61682;BME280;47577;43.610;25.010;2022-07-23T13:39:59;100207.66;;;42.50;15.12
61682;BME280;47577;43.610;25.010;2022-07-23T13:42:25;100208.94;;;42.69;15.27
61682;BME280;47577;43.610;25.010;2022-07-23T13:44:53;100210.81;;;42.59;14.58
61682;BME280;47577;43.610;25.010;2022-07-23T13:47:18;100201.63;;;42.63;14.67
61682;BME280;47577;43.610;25.010;2022-07-23T13:49:44;100191.06;;;42.70;14.80
61682;BME280;47577;43.610;25.010;2022-07-23T13:52:09;100190.88;;;42.87;14.71
61682;BME280;47577;43.610;25.010;2022-07-23T13:54:35;100186.47;;;42.97;13.93
61682;BME280;47577;43.610;25.010;2022-07-23T13:57:00;100190.16;;;43.07;14.43
61682;BME280;47577;43.610;25.010;2022-07-23T13:59:26;100185.41;;;43.03;13.65
61682;BME280;47577;43.610;25.010;2022-07-23T14:01:51;100180.84;;;42.91;14.51
61682;BME280;47577;43.610;25.010;2022-07-23T14:04:17;100181.94;;;42.90;14.69
61682;BME280;47577;43.610;25.010;2022-07-23T14:06:42;100184.19;;;42.93;14.56
61682;BME280;47577;43.610;25.010;2022-07-23T14:09:08;100183.38;;;42.50;14.82
61682;BME280;47577;43.610;25.010;2022-07-23T14:11:33;100178.56;;;42.83;14.40
61682;BME280;47577;43.610;25.010;2022-07-23T14:13:58;100180.06;;;43.01;14.31
61682;BME280;47577;43.610;25.010;2022-07-23T14:16:25;100176.22;;;43.23;14.35
61682;BME280;47577;43.610;25.010;2022-07-23T14:18:51;100169.25;;;43.31;14.28
61682;BME280;47577;43.610;25.010;2022-07-23T14:21:16;100172.06;;;43.31;14.30
61682;BME280;47577;43.610;25.010;2022-07-23T14:23:42;100171.72;;;43.12;13.98
61682;BME280;47577;43.610;25.010;2022-07-23T14:26:07;100170.63;;;43.18;14.12